Time;durP1;ratioP1;P1;durP2;ratioP2;P2;SDS_P1;SDS_P2;PMS_P1;PMS_P2;Temp;Humidity;BMP_temperature;BMP_pressure;BME280_temperature;BME280_humidity;BME280_pressure;Samples;Min_cycle;Max_cycle;Signal;HPM_P1;HPM_P2
2022/05/31 00:03:49;;;;;;;8.60;3.22;;;;;;;;;;10436185;28;21042;-75
2022/05/31 00:08:50;;;;;;;2.97;2.78;;;;;;;;;;10460419;28;20225;-74
2022/05/31 00:13:51;;;;;;;3.17;2.95;;;;;;;;;;10446155;28;20210;-75
2022/05/31 00:18:52;;;;;;;5.25;2.78;;;;;;;;;;10439855;28;20235;-75
2022/05/31 00:23:53;;;;;;;3.28;3.17;;;;;;;;;;10438966;28;20299;-75
2022/05/31 00:28:54;;;;;;;3.03;2.92;;;;;;;;;;10453492;28;20251;-75
2022/05/31 00:33:55;;;;;;;4.60;3.00;;;;;;;;;;10460067;28;20233;-75
2022/05/31 00:38:56;;;;;;;3.28;3.10;;;;;;;;;;10456432;28;20263;-75
2022/05/31 00:43:59;;;;;;;3.60;3.30;;;;;;;;;;10435634;28;20204;-75
2022/05/31 00:49:04;;;;;;;4.03;3.50;;;;;;;;;;10416220;28;20198;-75
2022/05/31 00:54:08;;;;;;;3.40;3.08;;;;;;;;;;10420342;28;20224;-75
2022/05/31 00:59:13;;;;;;;3.10;3.00;;;;;;;;;;10430070;28;20194;-75
2022/05/31 01:04:14;;;;;;;3.33;3.10;;;;;;;;;;10424540;28;20768;-74
2022/05/31 01:09:15;;;;;;;3.20;3.00;;;;;;;;;;10438890;28;20230;-75
2022/05/31 01:14:19;;;;;;;3.70;3.30;;;;;;;;;;10450037;28;20244;-75
2022/05/31 01:20:00;;;;;;;3.25;3.05;;;;;;;;;;10447840;28;20234;-75
2022/05/31 01:25:37;;;;;;;3.97;3.38;;;;;;;;;;10420556;28;20199;-75
2022/05/31 01:30:41;;;;;;;3.35;3.25;;;;;;;;;;10430332;28;20243;-76
2022/05/31 01:35:43;;;;;;;3.10;2.90;;;;;;;;;;10445770;28;20221;-75
2022/05/31 01:40:59;;;;;;;2.92;2.83;;;;;;;;;;10455524;28;20532;-76
2022/05/31 01:46:05;;;;;;;3.08;2.97;;;;;;;;;;10445882;28;20226;-76
2022/05/31 01:51:06;;;;;;;4.35;3.25;;;;;;;;;;10444628;28;20202;-75
2022/05/31 01:56:09;;;;;;;3.25;3.00;;;;;;;;;;10422507;28;20241;-74
2022/05/31 02:01:10;;;;;;;2.83;2.72;;;;;;;;;;10424953;28;20210;-75
2022/05/31 02:06:32;;;;;;;5.95;3.38;;;;;;;;;;10415402;28;20319;-74
2022/05/31 02:11:34;;;;;;;3.05;2.88;;;;;;;;;;10399202;28;20322;-75
2022/05/31 02:16:45;;;;;;;3.35;3.00;;;;;;;;;;10403907;28;20225;-75
2022/05/31 02:22:06;;;;;;;3.30;3.10;;;;;;;;;;10432215;28;20876;-76
2022/05/31 02:27:08;;;;;;;3.22;3.13;;;;;;;;;;10381470;28;20218;-75
2022/05/31 02:32:10;;;;;;;2.80;2.60;;;;;;;;;;10408644;28;20218;-76
2022/05/31 02:37:12;;;;;;;2.17;2.17;;;;;;;;;;10419721;28;20326;-75
2022/05/31 02:42:15;;;;;;;3.30;3.20;;;;;;;;;;10389424;28;20194;-76
2022/05/31 02:47:16;;;;;;;3.05;2.83;;;;;;;;;;10393959;28;20199;-75
2022/05/31 02:52:17;;;;;;;3.67;3.45;;;;;;;;;;10407763;28;20203;-75
2022/05/31 02:57:19;;;;;;;3.78;3.55;;;;;;;;;;10386363;28;20345;-74
2022/05/31 03:02:48;;;;;;;4.00;3.67;;;;;;;;;;10414851;28;20218;-75
2022/05/31 03:08:09;;;;;;;7.35;3.88;;;;;;;;;;10421587;28;20230;-76
2022/05/31 03:13:28;;;;;;;4.05;3.75;;;;;;;;;;10418334;28;20298;-74
2022/05/31 03:18:34;;;;;;;4.10;3.75;;;;;;;;;;10442466;28;20187;-74
2022/05/31 03:23:41;;;;;;;3.10;2.95;;;;;;;;;;10428342;28;20202;-75
2022/05/31 03:28:43;;;;;;;3.95;3.65;;;;;;;;;;10410084;28;20211;-76
2022/05/31 03:33:45;;;;;;;5.13;3.88;;;;;;;;;;10417613;28;20307;-74
2022/05/31 03:38:46;;;;;;;4.70;4.43;;;;;;;;;;10426276;28;20249;-74
2022/05/31 03:43:48;;;;;;;3.15;3.05;;;;;;;;;;10428859;28;20194;-76
2022/05/31 03:48:52;;;;;;;3.55;3.28;;;;;;;;;;10423329;28;20220;-75
2022/05/31 03:53:53;;;;;;;4.07;3.75;;;;;;;;;;10409750;28;20206;-75
2022/05/31 03:59:05;;;;;;;3.72;3.45;;;;;;;;;;10412694;28;20187;-75
2022/05/31 04:04:06;;;;;;;3.33;3.03;;;;;;;;;;10422898;28;20304;-77
2022/05/31 04:09:07;;;;;;;4.45;4.03;;;;;;;;;;10416432;28;20234;-77
2022/05/31 04:14:09;;;;;;;4.45;4.13;;;;;;;;;;10417480;28;20213;-77
2022/05/31 04:19:21;;;;;;;3.95;3.65;;;;;;;;;;10405676;28;20249;-76
2022/05/31 04:24:22;;;;;;;4.00;3.72;;;;;;;;;;10406985;28;20199;-76
2022/05/31 04:29:46;;;;;;;3.70;3.40;;;;;;;;;;10418426;28;20637;-76
2022/05/31 04:35:07;;;;;;;3.30;3.08;;;;;;;;;;10414567;28;20264;-76
2022/05/31 04:40:09;;;;;;;3.97;3.55;;;;;;;;;;10414616;28;20201;-77
2022/05/31 04:45:19;;;;;;;3.88;3.58;;;;;;;;;;10450757;28;20220;-75
2022/05/31 04:50:20;;;;;;;4.07;3.78;;;;;;;;;;10430315;28;20198;-77
2022/05/31 04:55:21;;;;;;;4.03;3.60;;;;;;;;;;10413341;28;20244;-76
2022/05/31 05:00:27;;;;;;;5.05;3.50;;;;;;;;;;10415624;28;20601;-76
2022/05/31 05:05:37;;;;;;;4.18;3.80;;;;;;;;;;10408917;28;20804;-76
2022/05/31 05:10:49;;;;;;;3.63;3.50;;;;;;;;;;10402198;28;20725;-76
2022/05/31 05:16:03;;;;;;;4.38;4.03;;;;;;;;;;10421124;28;20697;-76
2022/05/31 05:21:11;;;;;;;5.07;4.60;;;;;;;;;;10399699;28;20667;-76
2022/05/31 05:26:14;;;;;;;4.13;3.80;;;;;;;;;;10407919;28;20486;-76
2022/05/31 05:31:35;;;;;;;5.13;3.55;;;;;;;;;;10435547;28;20821;-75
2022/05/31 05:36:54;;;;;;;3.67;3.22;;;;;;;;;;10442873;28;20218;-75
2022/05/31 05:41:57;;;;;;;3.95;3.58;;;;;;;;;;10438402;28;20255;-75
2022/05/31 05:47:16;;;;;;;4.35;3.95;;;;;;;;;;10430877;28;20206;-76
2022/05/31 05:52:18;;;;;;;3.78;3.60;;;;;;;;;;10424675;28;20204;-75
2022/05/31 05:57:39;;;;;;;3.63;3.35;;;;;;;;;;10437209;28;20283;-76
2022/05/31 06:03:19;;;;;;;7.10;3.90;;;;;;;;;;10440893;28;20222;-77
2022/05/31 06:08:29;;;;;;;4.55;4.03;;;;;;;;;;10430172;28;20226;-76
2022/05/31 06:13:33;;;;;;;4.43;4.05;;;;;;;;;;10439225;28;20301;-78
2022/05/31 06:18:44;;;;;;;5.10;4.00;;;;;;;;;;10423854;28;23727;-78
2022/05/31 06:23:45;;;;;;;4.22;3.78;;;;;;;;;;10454065;28;20198;-78
2022/05/31 06:28:49;;;;;;;3.33;3.13;;;;;;;;;;10429421;28;20202;-78
2022/05/31 06:33:51;;;;;;;4.57;2.47;;;;;;;;;;10441487;28;20222;-77
2022/05/31 06:38:55;;;;;;;2.38;2.28;;;;;;;;;;10443706;28;20199;-77
2022/05/31 06:43:57;;;;;;;2.70;2.45;;;;;;;;;;10453864;28;20198;-77
2022/05/31 06:49:29;;;;;;;2.25;2.15;;;;;;;;;;10410355;28;20617;-77
2022/05/31 07:00:27;;;;;;;5.03;2.08;;;;;;;;;;10437441;28;20207;-77
2022/05/31 07:05:28;;;;;;;6.30;3.13;;;;;;;;;;10393870;28;20222;-78
2022/05/31 07:10:29;;;;;;;2.67;2.47;;;;;;;;;;10395771;28;20734;-78
2022/05/31 07:16:03;;;;;;;4.13;2.30;;;;;;;;;;10387652;28;20227;-77
2022/05/31 07:21:23;;;;;;;5.78;2.70;;;;;;;;;;10429908;28;20290;-77
2022/05/31 07:26:25;;;;;;;2.95;2.60;;;;;;;;;;10385971;28;20705;-78
2022/05/31 07:31:28;;;;;;;3.85;2.70;;;;;;;;;;10411021;28;20228;-77
2022/05/31 07:36:37;;;;;;;3.67;2.75;;;;;;;;;;10427266;28;20206;-76
2022/05/31 07:41:42;;;;;;;3.33;3.00;;;;;;;;;;10430709;28;20203;-75
2022/05/31 07:46:44;;;;;;;2.30;2.10;;;;;;;;;;10404069;28;20202;-75
2022/05/31 07:51:46;;;;;;;3.88;2.38;;;;;;;;;;10425349;28;20725;-76
2022/05/31 07:57:05;;;;;;;2.00;1.90;;;;;;;;;;10436585;28;20210;-76
2022/05/31 08:02:42;;;;;;;6.53;2.13;;;;;;;;;;10433592;28;20218;-76
2022/05/31 08:07:43;;;;;;;2.50;2.40;;;;;;;;;;10403642;28;20231;-76
2022/05/31 08:12:44;;;;;;;2.97;2.00;;;;;;;;;;10399311;28;20241;-76
2022/05/31 08:17:46;;;;;;;2.08;1.98;;;;;;;;;;10376029;28;20211;-76
2022/05/31 08:22:48;;;;;;;3.45;2.58;;;;;;;;;;10394742;28;20702;-77
2022/05/31 08:27:49;;;;;;;5.82;2.13;;;;;;;;;;10378126;28;21027;-76
2022/05/31 08:32:50;;;;;;;3.17;2.20;;;;;;;;;;10402992;28;20228;-76
2022/05/31 08:37:51;;;;;;;3.17;1.65;;;;;;;;;;10371274;28;20781;-76
2022/05/31 08:42:57;;;;;;;2.20;1.38;;;;;;;;;;10336108;28;20195;-76
2022/05/31 08:48:09;;;;;;;3.90;2.10;;;;;;;;;;10400983;28;20210;-76
2022/05/31 08:53:16;;;;;;;1.40;1.20;;;;;;;;;;10389405;28;20233;-76
2022/05/31 08:58:19;;;;;;;3.83;1.50;;;;;;;;;;10396817;28;20194;-77
2022/05/31 09:03:24;;;;;;;1.92;0.93;;;;;;;;;;10372723;28;20218;-77
2022/05/31 09:08:36;;;;;;;1.40;1.30;;;;;;;;;;10402634;28;20222;-76
2022/05/31 09:13:41;;;;;;;6.82;1.40;;;;;;;;;;10395023;28;20374;-77
2022/05/31 09:18:51;;;;;;;1.83;1.63;;;;;;;;;;10408465;28;20990;-76
2022/05/31 09:23:55;;;;;;;3.88;1.65;;;;;;;;;;10408956;28;20194;-76
2022/05/31 09:28:58;;;;;;;2.95;1.60;;;;;;;;;;10417962;28;20225;-76
2022/05/31 09:34:20;;;;;;;1.58;1.38;;;;;;;;;;10410001;28;20223;-75
2022/05/31 09:39:53;;;;;;;2.53;1.73;;;;;;;;;;10392118;28;20256;-76
2022/05/31 09:45:09;;;;;;;5.45;1.95;;;;;;;;;;10401614;28;20207;-76
2022/05/31 09:50:10;;;;;;;1.60;1.60;;;;;;;;;;10409533;28;20292;-76
2022/05/31 10:01:00;;;;;;;3.90;1.70;;;;;;;;;;10380962;28;20198;-76
2022/05/31 10:06:15;;;;;;;2.70;1.20;;;;;;;;;;10403977;28;20242;-76
2022/05/31 10:11:22;;;;;;;1.00;0.88;;;;;;;;;;10397347;28;20326;-76
2022/05/31 10:16:24;;;;;;;1.40;1.00;;;;;;;;;;10386912;28;20707;-76
2022/05/31 10:21:30;;;;;;;2.45;1.08;;;;;;;;;;10429225;28;20202;-76
2022/05/31 10:26:37;;;;;;;1.20;1.02;;;;;;;;;;10426886;28;20327;-76
2022/05/31 10:31:49;;;;;;;1.20;1.10;;;;;;;;;;10428589;28;20281;-77
2022/05/31 10:36:53;;;;;;;0.90;0.90;;;;;;;;;;10427052;28;20202;-77
2022/05/31 10:41:55;;;;;;;1.83;1.02;;;;;;;;;;10423498;28;20201;-76
2022/05/31 10:47:00;;;;;;;1.65;1.00;;;;;;;;;;10451465;28;21115;-75
2022/05/31 10:52:01;;;;;;;2.85;1.02;;;;;;;;;;10442666;28;21259;-76
2022/05/31 10:57:21;;;;;;;3.22;1.40;;;;;;;;;;10426355;28;20621;-76
2022/05/31 11:02:32;;;;;;;1.05;1.02;;;;;;;;;;10421792;28;20214;-77
2022/05/31 11:11:28;;;;;;;1.85;0.90;;;;;;;;;;10430955;28;20236;-77
2022/05/31 11:13:31;;;;;;;1.40;1.08;;;;;;;;;;10432358;28;20674;-76
2022/05/31 11:18:41;;;;;;;1.10;0.90;;;;;;;;;;10443264;28;20321;-77
2022/05/31 11:23:56;;;;;;;0.77;0.77;;;;;;;;;;10446529;28;20709;-77
2022/05/31 11:29:11;;;;;;;1.60;0.85;;;;;;;;;;10432405;28;20205;-77
2022/05/31 11:34:25;;;;;;;1.02;0.75;;;;;;;;;;10418018;28;20310;-76
2022/05/31 11:39:28;;;;;;;0.90;0.80;;;;;;;;;;10442619;28;20206;-77
2022/05/31 11:44:32;;;;;;;1.08;0.95;;;;;;;;;;10432912;28;20209;-76
2022/05/31 11:49:55;;;;;;;0.70;0.70;;;;;;;;;;10439787;28;20545;-76
2022/05/31 11:55:28;;;;;;;3.58;0.93;;;;;;;;;;10427563;28;20337;-76
2022/05/31 12:00:33;;;;;;;1.33;0.82;;;;;;;;;;10437453;28;20230;-77
2022/05/31 12:05:43;;;;;;;1.13;0.85;;;;;;;;;;10446149;28;20226;-77
2022/05/31 12:10:47;;;;;;;2.97;0.77;;;;;;;;;;10403880;28;21066;-77
2022/05/31 12:15:50;;;;;;;3.28;1.10;;;;;;;;;;10439779;28;20215;-76
2022/05/31 12:21:06;;;;;;;2.60;0.73;;;;;;;;;;10443851;28;20364;-76
2022/05/31 12:26:16;;;;;;;0.85;0.85;;;;;;;;;;10409595;28;20686;-77
2022/05/31 12:31:37;;;;;;;2.00;0.75;;;;;;;;;;10419086;28;20220;-76
2022/05/31 12:36:58;;;;;;;2.30;0.90;;;;;;;;;;10414819;28;20206;-76
2022/05/31 12:42:15;;;;;;;2.70;0.82;;;;;;;;;;10439111;28;20289;-77
2022/05/31 12:47:32;;;;;;;5.75;1.00;;;;;;;;;;10447997;28;20201;-77
2022/05/31 13:03:25;;;;;;;0.75;0.73;;;;;;;;;;10426061;28;20237;-76
2022/05/31 13:08:45;;;;;;;0.77;0.60;;;;;;;;;;10447105;28;20673;-76
2022/05/31 13:24:29;;;;;;;0.60;0.60;;;;;;;;;;10444569;28;20253;-76
2022/05/31 13:29:30;;;;;;;0.65;0.50;;;;;;;;;;10415869;28;20202;-77
2022/05/31 13:34:33;;;;;;;1.77;0.52;;;;;;;;;;10434651;28;20214;-76
2022/05/31 13:39:41;;;;;;;0.98;0.50;;;;;;;;;;10440532;28;20206;-77
2022/05/31 13:44:42;;;;;;;0.65;0.65;;;;;;;;;;10439472;28;20233;-76
2022/05/31 13:49:44;;;;;;;2.15;0.60;;;;;;;;;;10443859;28;20205;-76
2022/05/31 13:54:45;;;;;;;0.60;0.60;;;;;;;;;;10451040;28;20214;-76
2022/05/31 13:59:47;;;;;;;2.05;0.70;;;;;;;;;;10434064;28;20229;-77
2022/05/31 14:05:09;;;;;;;1.50;0.57;;;;;;;;;;10418637;28;20308;-77
2022/05/31 14:10:12;;;;;;;1.98;1.00;;;;;;;;;;10446832;28;20235;-76
2022/05/31 14:15:24;;;;;;;1.60;0.50;;;;;;;;;;10446426;28;20207;-76
2022/05/31 14:20:28;;;;;;;1.23;0.60;;;;;;;;;;10423929;28;20207;-77
2022/05/31 14:25:31;;;;;;;0.70;0.70;;;;;;;;;;10451627;28;20210;-76
2022/05/31 14:30:34;;;;;;;0.93;0.38;;;;;;;;;;10452063;28;20212;-76
2022/05/31 14:35:49;;;;;;;2.40;0.60;;;;;;;;;;10438707;28;20786;-77
2022/05/31 14:40:52;;;;;;;0.43;0.43;;;;;;;;;;10454433;28;20226;-77
2022/05/31 14:45:53;;;;;;;3.05;0.60;;;;;;;;;;10453893;28;20201;-76
2022/05/31 14:50:55;;;;;;;0.73;0.60;;;;;;;;;;10459157;28;20209;-76
2022/05/31 14:55:56;;;;;;;0.63;0.63;;;;;;;;;;10391144;28;20309;-75
2022/05/31 15:00:57;;;;;;;0.50;0.47;;;;;;;;;;10428607;28;20234;-76
2022/05/31 15:06:06;;;;;;;1.33;0.50;;;;;;;;;;10422940;28;20230;-77
2022/05/31 15:21:49;;;;;;;1.35;0.60;;;;;;;;;;10418580;28;20248;-77
2022/05/31 15:26:50;;;;;;;24.05;1.88;;;;;;;;;;10403505;28;20782;-76
2022/05/31 15:31:51;;;;;;;1.70;0.65;;;;;;;;;;10457269;28;20243;-76
2022/05/31 15:36:53;;;;;;;0.50;0.50;;;;;;;;;;10456657;28;20236;-77
2022/05/31 15:41:55;;;;;;;1.60;0.70;;;;;;;;;;10453171;28;20226;-77
2022/05/31 15:46:56;;;;;;;0.50;0.50;;;;;;;;;;10430138;28;20209;-76
2022/05/31 15:51:59;;;;;;;0.60;0.60;;;;;;;;;;10449631;28;20335;-77
2022/05/31 15:57:00;;;;;;;0.50;0.50;;;;;;;;;;10453275;28;20241;-76
2022/05/31 16:02:01;;;;;;;2.42;0.75;;;;;;;;;;10457588;28;20248;-77
2022/05/31 16:07:02;;;;;;;0.52;0.52;;;;;;;;;;10441417;28;20744;-76
2022/05/31 16:12:03;;;;;;;0.70;0.70;;;;;;;;;;10453460;28;20210;-76
2022/05/31 16:17:05;;;;;;;0.52;0.50;;;;;;;;;;10448739;28;20215;-76
2022/05/31 16:22:10;;;;;;;2.65;0.57;;;;;;;;;;10423502;28;20191;-76
2022/05/31 16:27:12;;;;;;;1.60;0.65;;;;;;;;;;10385968;28;20198;-77
2022/05/31 16:32:14;;;;;;;0.93;0.93;;;;;;;;;;10445859;28;20270;-76
2022/05/31 16:42:35;;;;;;;2.05;0.77;;;;;;;;;;10429596;28;20199;-75
2022/05/31 16:47:36;;;;;;;0.82;0.82;;;;;;;;;;10450619;28;20217;-75
2022/05/31 16:52:39;;;;;;;0.85;0.60;;;;;;;;;;10426727;28;21130;-75
2022/05/31 16:57:42;;;;;;;0.60;0.60;;;;;;;;;;10402707;28;20214;-75
2022/05/31 17:02:43;;;;;;;1.75;0.63;;;;;;;;;;10407605;28;20223;-75
2022/05/31 17:18:24;;;;;;;0.80;0.80;;;;;;;;;;10443058;28;20225;-76
2022/05/31 17:23:31;;;;;;;0.82;0.82;;;;;;;;;;10434870;28;20193;-76
2022/05/31 17:28:34;;;;;;;1.02;0.80;;;;;;;;;;10439501;28;20206;-76
2022/05/31 17:33:35;;;;;;;1.75;0.60;;;;;;;;;;10436479;28;20222;-75
2022/05/31 17:38:37;;;;;;;3.13;0.68;;;;;;;;;;10425717;28;20212;-76
2022/05/31 17:43:38;;;;;;;0.90;0.52;;;;;;;;;;10397962;28;20237;-75
2022/05/31 17:48:39;;;;;;;0.98;0.68;;;;;;;;;;10433557;28;20218;-75
2022/05/31 17:53:40;;;;;;;1.25;0.50;;;;;;;;;;10416448;28;20256;-75
2022/05/31 17:58:43;;;;;;;0.95;0.50;;;;;;;;;;10436897;28;20191;-75
2022/05/31 18:03:45;;;;;;;0.50;0.50;;;;;;;;;;10442767;28;20746;-75
2022/05/31 18:08:46;;;;;;;1.05;0.43;;;;;;;;;;10446975;28;20272;-75
2022/05/31 18:13:47;;;;;;;0.60;0.60;;;;;;;;;;10450663;28;20669;-75
2022/05/31 18:18:48;;;;;;;0.73;0.73;;;;;;;;;;10431012;28;20237;-74
2022/05/31 18:23:49;;;;;;;0.60;0.60;;;;;;;;;;10420572;28;20210;-75
2022/05/31 18:34:10;;;;;;;0.90;0.68;;;;;;;;;;10443880;28;20225;-75
2022/05/31 18:40:21;;;;;;;1.10;0.50;;;;;;;;;;10455857;28;20585;-75
2022/05/31 18:44:36;;;;;;;1.23;0.85;;;;;;;;;;10443753;28;20198;-75
2022/05/31 18:49:37;;;;;;;1.65;0.65;;;;;;;;;;10433837;28;20558;-75
2022/05/31 18:54:38;;;;;;;0.63;0.50;;;;;;;;;;10448761;28;20238;-75
2022/05/31 18:59:39;;;;;;;0.50;0.50;;;;;;;;;;10446348;28;20206;-75
2022/05/31 19:04:40;;;;;;;1.02;0.95;;;;;;;;;;10435752;28;20245;-75
2022/05/31 19:09:41;;;;;;;0.90;0.90;;;;;;;;;;10421116;28;20213;-74
2022/05/31 19:14:44;;;;;;;2.00;1.40;;;;;;;;;;10441505;28;20327;-74
2022/05/31 19:19:46;;;;;;;2.58;1.13;;;;;;;;;;10425791;28;20363;-74
2022/05/31 19:24:47;;;;;;;1.58;1.58;;;;;;;;;;10420714;28;20207;-74
2022/05/31 19:29:49;;;;;;;2.63;1.67;;;;;;;;;;10434510;28;20205;-75
2022/05/31 19:34:51;;;;;;;1.83;1.83;;;;;;;;;;10439984;28;20355;-74
2022/05/31 19:39:52;;;;;;;2.83;1.67;;;;;;;;;;10435486;28;20205;-73
2022/05/31 19:44:53;;;;;;;2.28;2.03;;;;;;;;;;10451411;28;20194;-74
2022/05/31 19:49:54;;;;;;;2.42;2.33;;;;;;;;;;10463409;28;20198;-74
2022/05/31 19:54:59;;;;;;;2.25;1.70;;;;;;;;;;10438047;28;20211;-74
2022/05/31 20:00:00;;;;;;;1.98;1.88;;;;;;;;;;10455825;28;20217;-74
2022/05/31 20:05:02;;;;;;;1.77;1.63;;;;;;;;;;10445658;28;21279;-73
2022/05/31 20:10:05;;;;;;;2.88;2.67;;;;;;;;;;10424940;28;20199;-74
2022/05/31 20:15:08;;;;;;;2.67;2.58;;;;;;;;;;10442597;28;20248;-75
2022/05/31 20:20:10;;;;;;;2.53;2.33;;;;;;;;;;10449901;28;20210;-75
2022/05/31 20:25:12;;;;;;;2.13;2.03;;;;;;;;;;10433178;28;20221;-75
2022/05/31 20:30:15;;;;;;;2.53;2.42;;;;;;;;;;10440744;28;20213;-74
2022/05/31 20:35:16;;;;;;;2.28;2.17;;;;;;;;;;10455556;28;20295;-74
2022/05/31 20:40:18;;;;;;;2.63;2.53;;;;;;;;;;10433730;28;20202;-74
2022/05/31 20:45:19;;;;;;;2.50;2.40;;;;;;;;;;10435734;28;20203;-75
2022/05/31 20:50:20;;;;;;;2.63;2.42;;;;;;;;;;10451538;28;20199;-75
2022/05/31 20:55:24;;;;;;;2.50;2.40;;;;;;;;;;10416379;28;20223;-75
2022/05/31 21:00:27;;;;;;;3.03;2.65;;;;;;;;;;10438775;28;20292;-73
2022/05/31 21:05:29;;;;;;;5.00;4.03;;;;;;;;;;10415576;28;20826;-73
2022/05/31 21:10:34;;;;;;;4.70;2.90;;;;;;;;;;10431245;28;20285;-74
2022/05/31 21:15:35;;;;;;;3.05;2.83;;;;;;;;;;10427500;28;20209;-74
2022/05/31 21:20:37;;;;;;;3.30;3.13;;;;;;;;;;10453883;28;20197;-74
2022/05/31 21:25:39;;;;;;;4.55;3.20;;;;;;;;;;10446133;28;20321;-74
2022/05/31 21:30:40;;;;;;;3.75;2.95;;;;;;;;;;10427795;28;20759;-74
2022/05/31 21:35:41;;;;;;;3.65;3.45;;;;;;;;;;10445928;28;20216;-74
2022/05/31 21:46:03;;;;;;;3.58;3.38;;;;;;;;;;10412707;28;20202;-74
2022/05/31 21:51:05;;;;;;;3.13;3.03;;;;;;;;;;10411581;28;20208;-75
2022/05/31 21:56:07;;;;;;;4.03;3.75;;;;;;;;;;10439823;28;20207;-75
2022/05/31 22:01:12;;;;;;;4.53;3.30;;;;;;;;;;10449343;28;20210;-74
2022/05/31 22:06:16;;;;;;;4.28;4.07;;;;;;;;;;10445197;28;20234;-75
2022/05/31 22:11:20;;;;;;;3.90;3.70;;;;;;;;;;10435347;28;20737;-75
2022/05/31 22:16:22;;;;;;;3.50;3.38;;;;;;;;;;10431137;28;20345;-75
2022/05/31 22:21:24;;;;;;;3.92;3.60;;;;;;;;;;10436111;28;20194;-75
2022/05/31 22:26:27;;;;;;;3.97;3.88;;;;;;;;;;10433302;28;20206;-74
2022/05/31 22:31:28;;;;;;;3.83;3.72;;;;;;;;;;10457580;28;20246;-75
2022/05/31 22:36:29;;;;;;;3.92;3.60;;;;;;;;;;10458860;28;20305;-74
2022/05/31 22:41:31;;;;;;;5.22;3.95;;;;;;;;;;10460416;28;20271;-74
2022/05/31 22:46:43;;;;;;;4.60;4.30;;;;;;;;;;10460765;28;20613;-75
2022/05/31 22:51:44;;;;;;;3.85;3.72;;;;;;;;;;10454487;28;20590;-75
2022/05/31 22:56:46;;;;;;;4.18;4.00;;;;;;;;;;10407447;28;21448;-75
2022/05/31 23:01:47;;;;;;;3.92;3.58;;;;;;;;;;10437925;28;20703;-74
2022/05/31 23:06:49;;;;;;;4.68;4.35;;;;;;;;;;10460163;28;20246;-75
2022/05/31 23:11:51;;;;;;;4.75;4.45;;;;;;;;;;10423258;28;20210;-75
2022/05/31 23:16:53;;;;;;;4.60;4.43;;;;;;;;;;10457035;28;20218;-75
2022/05/31 23:23:46;;;;;;;5.10;4.68;;;;;;;;;;10451780;28;20207;-75
2022/05/31 23:27:17;;;;;;;4.85;4.45;;;;;;;;;;10441643;28;20843;-75
2022/05/31 23:32:19;;;;;;;4.75;4.35;;;;;;;;;;10422584;28;20899;-74
2022/05/31 23:37:20;;;;;;;5.22;5.03;;;;;;;;;;10461161;28;20221;-74
2022/05/31 23:42:22;;;;;;;5.40;5.10;;;;;;;;;;10460591;28;20551;-75
2022/05/31 23:47:24;;;;;;;5.47;5.22;;;;;;;;;;10456820;28;20202;-74
2022/05/31 23:52:26;;;;;;;5.70;5.20;;;;;;;;;;10425828;28;20202;-75
2022/05/31 23:57:27;;;;;;;5.82;5.43;;;;;;;;;;10430624;28;20355;-75
